Blankenberge, Belgium
Current Conditions -  °F | °C
As of 9:20 AM on Thursday 29 Jan 2015 (Local Time) from EBOS Reporting Station
Scattered Clouds Scattered Clouds  
Wind Chill: 32°   Ceiling: Unl
Heat Index: 41°   Visibility: 6mi
Dew Point: 32°   Wind: 17mph
Humidity: 70%   Direction: 230°SW
Pressure: 29.23"   Gusts: 39mph
Location:  51.31°N, 3.13°E
Report Text: EBOS 290820Z 23015G34KT 200V260 9999 FEW020 SCT030 05/M00 Q0990 NOSIG
Loading
Personal Weather Stations






























Interactive Weather Map New forecast layout! Learn more

10-Day Weather Forecast

Advertisements
Track Severe Weather on mobile